createdAt,value
2023-03-06T00:01:30.156Z,4.50
2023-03-06T00:03:57.910Z,4.32
2023-03-06T00:06:25.885Z,4.35
2023-03-06T00:08:54.175Z,4.57
2023-03-06T00:11:21.948Z,4.45
2023-03-06T00:13:53.328Z,4.60
2023-03-06T00:16:21.097Z,4.57
2023-03-06T00:18:49.099Z,4.97
2023-03-06T00:21:16.878Z,4.25
2023-03-06T00:23:44.606Z,4.90
2023-03-06T00:26:12.700Z,4.43
2023-03-06T00:28:40.695Z,4.50
2023-03-06T00:31:10.100Z,4.28
2023-03-06T00:33:37.851Z,5.38
2023-03-06T00:36:06.147Z,5.45
2023-03-06T00:38:35.557Z,4.97
2023-03-06T00:41:07.404Z,5.32
2023-03-06T00:43:35.176Z,4.90
2023-03-06T00:46:03.354Z,4.93
2023-03-06T00:48:32.468Z,5.82
2023-03-06T00:51:00.345Z,6.13
2023-03-06T00:53:28.131Z,5.82
2023-03-06T00:55:55.858Z,5.53
2023-03-06T00:58:23.627Z,6.00
2023-03-06T01:00:51.763Z,6.03
2023-03-06T01:03:19.505Z,6.80
2023-03-06T01:05:48.629Z,6.40
2023-03-06T01:08:16.374Z,6.95
2023-03-06T01:10:44.257Z,7.82
2023-03-06T01:13:12.038Z,7.43
2023-03-06T01:15:39.785Z,7.13
2023-03-06T01:18:07.553Z,7.60
2023-03-06T01:20:35.328Z,7.60
2023-03-06T01:23:04.385Z,6.88
2023-03-06T01:25:32.158Z,7.88
2023-03-06T01:27:59.891Z,7.03
2023-03-06T01:30:27.653Z,7.60
2023-03-06T01:32:55.421Z,8.23
2023-03-06T01:35:23.426Z,7.97
2023-03-06T01:37:51.460Z,7.68
2023-03-06T01:40:20.553Z,7.65
2023-03-06T01:42:49.372Z,8.02
2023-03-06T01:45:35.671Z,8.88
2023-03-06T01:48:03.645Z,7.57
2023-03-06T01:50:31.371Z,9.45
2023-03-06T01:53:00.376Z,8.52
2023-03-06T01:55:32.093Z,8.90
2023-03-06T01:58:01.569Z,8.95
2023-03-06T02:00:29.923Z,9.07
2023-03-06T02:02:58.901Z,9.95
2023-03-06T02:05:26.717Z,9.27
2023-03-06T02:07:55.469Z,9.25
2023-03-06T02:10:23.255Z,8.65
2023-03-06T02:12:53.018Z,10.13
2023-03-06T02:15:23.104Z,9.80
2023-03-06T02:17:51.725Z,10.43
2023-03-06T02:20:21.782Z,9.27
2023-03-06T02:22:53.373Z,10.55
2023-03-06T02:25:27.194Z,11.52
2023-03-06T02:27:55.173Z,11.57
2023-03-06T02:30:23.466Z,12.13
2023-03-06T02:32:51.225Z,11.25
2023-03-06T02:35:20.093Z,11.60
2023-03-06T02:37:47.935Z,11.88
2023-03-06T02:40:16.990Z,12.15
2023-03-06T02:42:49.697Z,12.13
2023-03-06T02:45:20.244Z,11.48
2023-03-06T02:47:48.345Z,11.73
2023-03-06T02:50:16.119Z,11.20
2023-03-06T02:52:43.869Z,11.82
2023-03-06T02:55:12.010Z,12.02
2023-03-06T02:57:39.767Z,12.10
2023-03-06T03:00:09.919Z,10.85
2023-03-06T03:02:38.256Z,11.00
2023-03-06T03:05:06.585Z,13.30
2023-03-06T03:07:34.675Z,9.63
2023-03-06T03:10:02.448Z,11.63
2023-03-06T03:12:30.225Z,12.80
2023-03-06T03:14:58.101Z,12.73
2023-03-06T03:17:27.226Z,12.05
2023-03-06T03:19:55.331Z,13.50
2023-03-06T03:22:23.196Z,13.27
2023-03-06T03:24:51.351Z,13.38
2023-03-06T03:27:19.127Z,13.23
2023-03-06T03:29:47.284Z,13.85
2023-03-06T03:32:15.045Z,13.10
2023-03-06T03:34:44.253Z,14.85
2023-03-06T03:37:12.348Z,13.13
2023-03-06T03:39:40.103Z,12.88
2023-03-06T03:42:08.289Z,13.35
2023-03-06T03:44:36.423Z,12.90
2023-03-06T03:47:04.321Z,12.68
2023-03-06T03:49:32.048Z,13.32
2023-03-06T03:52:01.461Z,13.60
2023-03-06T03:54:29.191Z,14.63
2023-03-06T03:56:56.919Z,14.02
2023-03-06T03:59:24.928Z,14.38
2023-03-06T04:01:56.001Z,13.80
2023-03-06T04:04:23.880Z,14.00
2023-03-06T04:06:51.911Z,15.68
2023-03-06T04:09:20.968Z,14.68
2023-03-06T04:11:49.068Z,15.18
2023-03-06T04:14:16.998Z,15.35
2023-03-06T04:16:45.044Z,16.05
2023-03-06T04:19:12.796Z,15.77
2023-03-06T04:21:40.590Z,16.13
2023-03-06T04:24:08.725Z,17.05
2023-03-06T04:26:38.018Z,17.50
2023-03-06T04:29:05.917Z,18.33
2023-03-06T04:31:33.743Z,16.88
2023-03-06T04:34:01.891Z,17.08
2023-03-06T04:36:30.519Z,15.25
2023-03-06T04:38:58.612Z,15.98
2023-03-06T04:41:26.370Z,16.63
2023-03-06T04:43:56.057Z,17.30
2023-03-06T04:46:23.844Z,17.10
2023-03-06T04:48:51.852Z,17.35
2023-03-06T04:51:19.792Z,15.68
2023-03-06T04:53:47.865Z,15.93
2023-03-06T04:56:15.816Z,16.02
2023-03-06T04:58:44.726Z,16.60
2023-03-06T05:01:13.876Z,15.75
2023-03-06T05:03:41.835Z,16.90
2023-03-06T05:06:10.005Z,16.52
2023-03-06T05:08:37.742Z,17.88
2023-03-06T05:11:05.654Z,16.92
2023-03-06T05:13:33.421Z,17.48
2023-03-06T05:16:04.571Z,17.08
2023-03-06T05:18:34.292Z,17.13
2023-03-06T05:21:02.629Z,16.10
2023-03-06T05:23:31.228Z,17.38
2023-03-06T05:25:59.869Z,17.80
2023-03-06T05:28:28.648Z,18.25
2023-03-06T05:30:56.469Z,18.50
2023-03-06T05:33:24.561Z,17.27
2023-03-06T05:35:53.716Z,17.63
2023-03-06T05:38:23.118Z,16.75
2023-03-06T05:40:50.960Z,16.13
2023-03-06T05:43:18.810Z,15.88
2023-03-06T05:45:46.993Z,16.30
2023-03-06T05:48:14.828Z,18.15
2023-03-06T05:50:42.591Z,16.98
2023-03-06T05:53:11.718Z,16.05
2023-03-06T05:55:39.888Z,17.25
2023-03-06T05:58:07.882Z,16.67
2023-03-06T06:00:35.622Z,16.55
2023-03-06T06:03:03.433Z,15.52
2023-03-06T06:05:31.468Z,16.38
2023-03-06T06:07:59.242Z,17.10
2023-03-06T06:10:28.379Z,18.02
2023-03-06T06:12:56.145Z,17.10
2023-03-06T06:15:23.955Z,17.30
2023-03-06T06:17:51.817Z,17.30
2023-03-06T06:20:19.882Z,16.92
2023-03-06T06:22:48.110Z,17.08
2023-03-06T06:25:16.253Z,14.98
2023-03-06T06:27:45.576Z,16.13
2023-03-06T06:30:13.875Z,15.05
2023-03-06T06:32:41.936Z,15.13
2023-03-06T06:35:10.625Z,15.15
2023-03-06T06:37:38.371Z,15.25
2023-03-06T06:40:06.868Z,15.50
2023-03-06T06:42:39.845Z,15.02
2023-03-06T06:45:10.931Z,15.45
2023-03-06T06:47:41.578Z,14.45
2023-03-06T06:50:11.647Z,17.33
2023-03-06T06:52:39.644Z,14.80
2023-03-06T06:55:08.053Z,15.23
2023-03-06T06:57:36.118Z,14.55
2023-03-06T07:00:04.732Z,14.45
2023-03-06T07:02:34.049Z,15.38
2023-03-06T07:05:05.141Z,15.05
2023-03-06T07:07:34.901Z,15.75
2023-03-06T07:10:03.134Z,16.15
2023-03-06T07:12:32.829Z,16.80
2023-03-06T07:15:00.605Z,15.30
2023-03-06T07:17:28.428Z,15.88
2023-03-06T07:19:57.522Z,16.45
2023-03-06T07:22:25.321Z,17.13
2023-03-06T07:24:53.122Z,17.10
2023-03-06T07:27:22.900Z,19.85
2023-03-06T07:29:50.692Z,17.67
2023-03-06T07:32:18.878Z,19.08
2023-03-06T07:34:46.932Z,19.67
2023-03-06T07:37:16.121Z,19.98
2023-03-06T07:39:43.999Z,19.55
2023-03-06T07:42:13.091Z,19.83
2023-03-06T07:44:41.094Z,18.20
2023-03-06T07:47:08.951Z,19.20
2023-03-06T07:49:36.923Z,18.90
2023-03-06T07:52:04.779Z,18.77
2023-03-06T07:54:35.219Z,18.52
2023-03-06T07:57:03.223Z,18.25
2023-03-06T07:59:31.006Z,18.75
2023-03-06T08:01:58.994Z,17.45
2023-03-06T08:04:28.974Z,18.20
2023-03-06T08:06:57.558Z,18.20
2023-03-06T08:09:25.414Z,19.35
2023-03-06T08:11:54.494Z,19.20
2023-03-06T08:14:22.766Z,18.80
2023-03-06T08:16:51.262Z,19.48
2023-03-06T08:19:19.093Z,18.77
2023-03-06T08:21:47.244Z,18.67
2023-03-06T08:24:17.038Z,19.23
2023-03-06T08:26:44.886Z,19.67
2023-03-06T08:29:15.649Z,19.33
2023-03-06T08:31:44.480Z,18.95
2023-03-06T08:34:13.734Z,18.08
2023-03-06T08:36:41.653Z,17.60
2023-03-06T08:39:09.838Z,19.67
2023-03-06T08:41:38.011Z,19.50
2023-03-06T08:44:06.424Z,18.95
2023-03-06T08:46:35.914Z,18.77
2023-03-06T08:49:04.224Z,19.23
2023-03-06T08:51:32.405Z,18.63
2023-03-06T08:54:00.447Z,18.70
2023-03-06T08:56:29.235Z,18.23
2023-03-06T08:58:57.832Z,20.38
2023-03-06T09:01:26.428Z,19.65
2023-03-06T09:03:56.494Z,18.40
2023-03-06T09:06:24.315Z,19.25
2023-03-06T09:08:52.434Z,19.83
2023-03-06T09:11:20.504Z,19.85
2023-03-06T09:13:48.276Z,18.58
2023-03-06T09:16:16.441Z,18.27
2023-03-06T09:18:44.237Z,18.58
2023-03-06T09:21:13.540Z,18.23
2023-03-06T09:23:41.746Z,18.35
2023-03-06T09:26:09.532Z,18.13
2023-03-06T09:28:38.930Z,18.42
2023-03-06T09:31:08.637Z,18.95
2023-03-06T09:33:36.413Z,17.75
2023-03-06T09:36:04.732Z,18.10
2023-03-06T09:38:34.278Z,19.83
2023-03-06T09:43:36.416Z,17.92
2023-03-06T09:46:08.261Z,19.20
2023-03-06T09:48:39.936Z,17.70
2023-03-06T09:51:10.362Z,19.13
2023-03-06T09:53:46.824Z,17.90
2023-03-06T09:56:16.489Z,20.02
2023-03-06T09:58:47.248Z,17.50
2023-03-06T10:01:17.406Z,16.85
2023-03-06T10:03:49.134Z,17.20
2023-03-06T10:06:17.820Z,17.23
2023-03-06T10:08:50.118Z,18.58
2023-03-06T10:11:20.755Z,16.70
2023-03-06T10:13:51.028Z,17.77
2023-03-06T10:16:27.871Z,15.70
2023-03-06T10:18:56.174Z,16.75
2023-03-06T10:21:34.899Z,16.70
2023-03-06T10:24:10.365Z,17.85
2023-03-06T10:26:41.307Z,21.05
2023-03-06T10:29:28.349Z,21.88
2023-03-06T10:31:59.087Z,21.65
2023-03-06T10:34:30.165Z,22.20
2023-03-06T10:36:59.343Z,20.98
2023-03-06T10:39:30.504Z,21.20
2023-03-06T10:41:58.642Z,20.17
2023-03-06T10:44:26.440Z,18.60
2023-03-06T10:46:54.803Z,18.70
2023-03-06T10:49:24.665Z,19.10
2023-03-06T10:51:57.249Z,16.33
2023-03-06T10:54:25.302Z,17.98
2023-03-06T10:56:54.470Z,17.50
2023-03-06T10:59:25.580Z,18.65
2023-03-06T11:01:54.745Z,19.20
2023-03-06T11:04:24.816Z,17.17
2023-03-06T11:07:11.426Z,17.88
2023-03-06T11:09:39.527Z,18.05
2023-03-06T11:12:22.336Z,17.33
2023-03-06T11:15:07.958Z,17.13
2023-03-06T11:17:36.917Z,16.25
2023-03-06T11:20:18.247Z,16.98
2023-03-06T11:22:49.225Z,15.40
2023-03-06T11:25:18.764Z,12.43
2023-03-06T11:27:50.377Z,13.48
2023-03-06T11:30:19.920Z,15.18
2023-03-06T11:32:52.688Z,15.73
2023-03-06T11:35:23.071Z,15.60
2023-03-06T11:37:54.044Z,15.68
2023-03-06T11:40:32.724Z,11.68
2023-03-06T11:43:05.368Z,12.65
2023-03-06T11:45:37.373Z,15.32
2023-03-06T11:48:15.407Z,12.95
2023-03-06T11:50:44.831Z,14.05
2023-03-06T11:53:13.514Z,11.95
2023-03-06T11:55:44.329Z,12.48
2023-03-06T11:58:22.053Z,11.93
2023-03-06T12:00:53.255Z,13.25
2023-03-06T12:03:36.991Z,11.80
2023-03-06T12:06:05.684Z,13.98
2023-03-06T12:08:39.413Z,13.77
2023-03-06T12:11:11.143Z,13.18
2023-03-06T12:13:44.974Z,13.95
2023-03-06T12:16:27.024Z,14.80
2023-03-06T12:19:00.118Z,14.30
2023-03-06T12:24:01.174Z,12.52
2023-03-06T12:26:43.140Z,12.63
2023-03-06T12:29:18.267Z,14.18
2023-03-06T12:31:54.349Z,14.88
2023-03-06T12:34:28.884Z,13.48
2023-03-06T12:37:02.155Z,14.20
2023-03-06T12:39:35.981Z,14.10
2023-03-06T12:42:11.503Z,14.70
2023-03-06T12:44:53.543Z,13.80
2023-03-06T12:47:22.583Z,14.25
2023-03-06T12:49:52.997Z,13.73
2023-03-06T12:52:29.653Z,14.18
2023-03-06T12:54:58.420Z,14.55
2023-03-06T12:57:26.925Z,14.98
2023-03-06T12:59:56.019Z,15.07
2023-03-06T13:02:31.695Z,14.18
2023-03-06T13:05:05.740Z,13.80
2023-03-06T13:07:38.922Z,14.63
2023-03-06T13:10:09.669Z,13.25
2023-03-06T13:12:41.774Z,12.27
2023-03-06T13:15:30.216Z,12.90
2023-03-06T13:17:59.452Z,13.85
2023-03-06T13:20:35.349Z,14.60
2023-03-06T13:23:21.784Z,15.10
2023-03-06T13:25:50.778Z,13.48
2023-03-06T13:28:26.109Z,11.35
2023-03-06T13:30:53.967Z,9.77
2023-03-06T13:33:40.226Z,9.77
2023-03-06T13:36:26.229Z,8.45
2023-03-06T13:39:02.794Z,10.27
2023-03-06T13:41:38.745Z,8.85
2023-03-06T13:44:34.618Z,10.00
2023-03-06T13:47:03.994Z,9.32
2023-03-06T13:49:32.058Z,10.23
2023-03-06T13:52:09.529Z,9.70
2023-03-06T13:54:44.248Z,10.48
2023-03-06T13:57:24.780Z,10.25
2023-03-06T14:00:14.439Z,6.13
2023-03-06T14:02:54.657Z,5.57
2023-03-06T14:05:22.984Z,7.20
2023-03-06T14:08:03.280Z,7.10
2023-03-06T14:10:33.564Z,7.47
2023-03-06T14:13:03.772Z,7.93
2023-03-06T14:15:37.156Z,8.40
2023-03-06T14:18:05.963Z,8.35
2023-03-06T14:20:34.915Z,8.68
2023-03-06T14:23:17.562Z,8.02
2023-03-06T14:25:46.583Z,8.25
2023-03-06T14:28:22.837Z,7.53
2023-03-06T14:30:51.334Z,7.57
2023-03-06T14:33:27.096Z,8.32
2023-03-06T14:35:56.636Z,9.10
2023-03-06T14:38:26.027Z,8.32
2023-03-06T14:40:53.824Z,8.02
2023-03-06T14:43:22.975Z,8.85
2023-03-06T14:45:51.514Z,8.45
2023-03-06T14:48:19.603Z,7.30
2023-03-06T14:50:49.006Z,7.75
2023-03-06T14:53:18.255Z,8.10
2023-03-06T14:55:50.155Z,9.43
2023-03-06T14:58:20.874Z,9.20
2023-03-06T15:00:50.449Z,7.80
2023-03-06T15:03:20.401Z,7.18
2023-03-06T15:05:48.536Z,6.00
2023-03-06T15:08:19.187Z,6.25
2023-03-06T15:10:57.474Z,7.03
2023-03-06T15:13:26.275Z,6.00
2023-03-06T15:15:57.751Z,7.05
2023-03-06T15:18:30.015Z,6.68
2023-03-06T15:21:07.964Z,6.72
2023-03-06T15:23:37.193Z,5.40
2023-03-06T15:26:19.581Z,7.38
2023-03-06T15:29:00.014Z,6.30
2023-03-06T15:31:35.333Z,6.47
2023-03-06T15:34:25.556Z,6.97
2023-03-06T15:36:55.471Z,7.18
2023-03-06T15:39:27.714Z,8.45
2023-03-06T15:41:58.929Z,7.43
2023-03-06T15:44:26.837Z,6.90
2023-03-06T15:47:06.658Z,7.72
2023-03-06T15:49:37.424Z,7.63
2023-03-06T15:52:05.417Z,9.23
2023-03-06T15:54:33.262Z,11.07
2023-03-06T15:57:04.205Z,7.97
2023-03-06T15:59:33.133Z,7.55
2023-03-06T16:02:01.438Z,7.55
2023-03-06T16:04:31.933Z,8.00
2023-03-06T16:07:00.002Z,9.10
2023-03-06T16:09:27.952Z,8.98
2023-03-06T16:11:55.914Z,8.23
2023-03-06T16:14:25.134Z,6.88
2023-03-06T16:16:54.350Z,6.72
2023-03-06T16:19:26.520Z,6.63
2023-03-06T16:21:55.288Z,6.88
2023-03-06T16:24:23.066Z,8.07
2023-03-06T16:26:51.731Z,7.65
2023-03-06T16:29:20.055Z,8.18
2023-03-06T16:31:49.296Z,8.02
2023-03-06T16:34:19.638Z,8.30
2023-03-06T16:36:48.188Z,7.22
2023-03-06T16:39:16.797Z,9.18
2023-03-06T16:41:45.872Z,9.00
2023-03-06T16:44:13.816Z,8.65
2023-03-06T16:46:42.898Z,8.40
2023-03-06T16:49:14.340Z,9.05
2023-03-06T16:51:42.151Z,8.18
2023-03-06T16:54:10.329Z,6.43
2023-03-06T16:56:38.114Z,6.28
2023-03-06T16:59:08.989Z,6.88
2023-03-06T17:01:37.385Z,7.68
2023-03-06T17:04:05.591Z,7.55
2023-03-06T17:06:34.766Z,7.30
2023-03-06T17:09:02.831Z,11.95
2023-03-06T17:11:30.862Z,10.73
2023-03-06T17:13:58.949Z,9.50
2023-03-06T17:16:28.992Z,9.55
2023-03-06T17:19:02.813Z,8.85
2023-03-06T17:21:35.512Z,7.63
2023-03-06T17:24:05.711Z,10.10
2023-03-06T17:26:34.066Z,9.00
2023-03-06T17:29:01.990Z,8.55
2023-03-06T17:31:30.318Z,8.93
2023-03-06T17:34:00.518Z,7.45
2023-03-06T17:36:28.694Z,8.52
2023-03-06T17:38:57.339Z,8.15
2023-03-06T17:41:26.557Z,7.75
2023-03-06T17:43:56.609Z,9.00
2023-03-06T17:46:24.817Z,10.18
2023-03-06T17:48:53.184Z,10.43
2023-03-06T17:51:24.066Z,9.63
2023-03-06T17:53:52.344Z,8.60
2023-03-06T17:56:23.362Z,8.63
2023-03-06T17:58:52.824Z,8.30
2023-03-06T18:01:22.256Z,8.88
2023-03-06T18:03:50.958Z,9.90
2023-03-06T18:06:19.606Z,9.93
2023-03-06T18:08:52.816Z,9.40
2023-03-06T18:11:21.671Z,10.23
2023-03-06T18:13:50.348Z,9.93
2023-03-06T18:16:21.361Z,9.80
2023-03-06T18:22:12.098Z,9.18
2023-03-06T18:24:40.168Z,8.85
2023-03-06T18:27:12.484Z,8.57
2023-03-06T18:29:45.769Z,7.95
2023-03-06T18:32:15.246Z,8.73
2023-03-06T18:34:43.504Z,9.57
2023-03-06T18:37:11.557Z,9.13
2023-03-06T18:39:39.642Z,9.05
2023-03-06T18:42:08.097Z,7.55
2023-03-06T18:44:36.160Z,8.07
2023-03-06T18:47:04.558Z,7.93
2023-03-06T18:49:34.088Z,8.30
2023-03-06T18:52:02.107Z,7.93
2023-03-06T18:54:30.172Z,9.73
2023-03-06T18:56:58.303Z,9.65
2023-03-06T18:59:26.540Z,9.10
2023-03-06T19:01:57.746Z,11.52
2023-03-06T19:04:26.134Z,11.32
2023-03-06T19:06:55.905Z,10.13
2023-03-06T19:09:24.268Z,11.05
2023-03-06T19:11:54.445Z,10.48
2023-03-06T19:14:22.757Z,9.75
2023-03-06T19:16:50.746Z,9.50
2023-03-06T19:19:18.759Z,8.68
2023-03-06T19:21:46.610Z,9.10
2023-03-06T19:24:15.716Z,8.82
2023-03-06T19:26:43.579Z,8.43
2023-03-06T19:29:11.529Z,9.40
2023-03-06T19:31:39.576Z,8.30
2023-03-06T19:34:07.322Z,8.88
2023-03-06T19:36:35.483Z,8.75
2023-03-06T19:39:04.470Z,10.20
2023-03-06T19:41:34.355Z,9.82
2023-03-06T19:44:03.361Z,9.15
2023-03-06T19:46:31.996Z,9.05
2023-03-06T19:49:00.339Z,9.57
2023-03-06T19:51:28.331Z,9.27
2023-03-06T19:53:56.793Z,10.85
2023-03-06T19:56:26.794Z,10.50
2023-03-06T19:58:55.914Z,10.90
2023-03-06T20:01:24.845Z,9.98
2023-03-06T20:03:58.372Z,9.95
2023-03-06T20:06:27.143Z,10.40
2023-03-06T20:08:54.922Z,10.32
2023-03-06T20:11:23.536Z,10.80
2023-03-06T20:13:51.880Z,11.18
2023-03-06T20:16:21.139Z,10.77
2023-03-06T20:18:48.885Z,11.38
2023-03-06T20:21:16.749Z,11.93
2023-03-06T20:23:44.472Z,9.95
2023-03-06T20:26:13.289Z,11.48
2023-03-06T20:28:41.805Z,11.05
2023-03-06T20:31:10.521Z,10.48
2023-03-06T20:33:39.698Z,12.77
2023-03-06T20:36:12.993Z,11.95
2023-03-06T20:38:41.006Z,13.10
2023-03-06T20:41:14.093Z,11.98
2023-03-06T20:43:41.921Z,13.05
2023-03-06T20:46:11.210Z,12.30
2023-03-06T20:48:40.669Z,12.93
2023-03-06T20:51:16.503Z,14.00
2023-03-06T20:53:44.498Z,14.30
2023-03-06T20:56:12.516Z,13.48
2023-03-06T20:58:40.456Z,12.88
2023-03-06T21:01:08.430Z,12.98
2023-03-06T21:03:36.658Z,12.65
2023-03-06T21:06:05.903Z,15.65
2023-03-06T21:08:36.382Z,15.18
2023-03-06T21:11:04.199Z,15.10
2023-03-06T21:13:31.946Z,15.88
2023-03-06T21:16:00.064Z,15.65
2023-03-06T21:18:28.231Z,16.92
2023-03-06T21:20:55.988Z,16.60
2023-03-06T21:23:25.300Z,16.00
2023-03-06T21:25:53.433Z,15.38
2023-03-06T21:28:21.235Z,15.35
2023-03-06T21:30:49.024Z,16.08
2023-03-06T21:33:16.902Z,15.45
2023-03-06T21:35:45.962Z,15.32
2023-03-06T21:38:14.477Z,16.45
2023-03-06T21:40:45.429Z,14.80
2023-03-06T21:43:13.497Z,13.68
2023-03-06T21:45:44.098Z,15.88
2023-03-06T21:48:11.857Z,15.73
2023-03-06T21:50:39.876Z,17.48
2023-03-06T21:53:08.013Z,15.38
2023-03-06T21:55:38.850Z,17.65
2023-03-06T21:58:08.223Z,19.80
2023-03-06T22:00:36.760Z,19.10
2023-03-06T22:03:04.950Z,17.15
2023-03-06T22:05:32.700Z,19.60
2023-03-06T22:08:00.450Z,18.27
2023-03-06T22:10:28.422Z,17.85
2023-03-06T22:12:56.454Z,17.73
2023-03-06T22:15:25.540Z,19.83
2023-03-06T22:17:53.655Z,17.17
2023-03-06T22:20:21.769Z,16.38
2023-03-06T22:22:49.729Z,18.83
2023-03-06T22:25:17.596Z,19.00
2023-03-06T22:27:45.551Z,19.33
2023-03-06T22:30:13.471Z,19.70
2023-03-06T22:32:42.909Z,20.85
2023-03-06T22:35:10.842Z,17.77
2023-03-06T22:37:38.796Z,20.50
2023-03-06T22:40:07.310Z,18.52
2023-03-06T22:42:35.705Z,19.42
2023-03-06T22:45:03.483Z,21.02
2023-03-06T22:47:31.447Z,20.58
2023-03-06T22:50:00.535Z,20.77
2023-03-06T22:52:28.569Z,20.38
2023-03-06T22:54:56.709Z,18.95
2023-03-06T22:57:24.430Z,20.40
2023-03-06T22:59:52.419Z,19.08
2023-03-06T23:02:20.154Z,20.52
2023-03-06T23:04:52.357Z,19.60
2023-03-06T23:07:21.702Z,20.05
2023-03-06T23:09:49.484Z,20.13
2023-03-06T23:12:17.236Z,21.00
2023-03-06T23:14:49.862Z,20.42
2023-03-06T23:17:18.052Z,20.17
2023-03-06T23:19:46.154Z,22.38
2023-03-06T23:22:14.404Z,18.55
2023-03-06T23:24:43.505Z,19.15
2023-03-06T23:27:11.914Z,18.63
2023-03-06T23:29:39.677Z,20.67
2023-03-06T23:32:08.109Z,21.50
2023-03-06T23:34:36.115Z,20.80
2023-03-06T23:37:04.094Z,20.65
2023-03-06T23:39:32.146Z,20.77
2023-03-06T23:42:01.353Z,20.88
2023-03-06T23:44:29.428Z,20.08
2023-03-06T23:46:57.158Z,19.88
2023-03-06T23:49:25.188Z,19.13
2023-03-06T23:51:53.140Z,19.70
2023-03-06T23:54:20.902Z,20.92
2023-03-06T23:56:48.624Z,21.45
2023-03-06T23:59:18.044Z,19.67
